Portada
METAR-TAF:

METAR-TAF

Aeropuertos :

Davenport Municipal Airport

Davenport, Iowa, Estados Unidos

latitud: 41-36-50N, longitud: 090-35-29W, altitud: 229 m

Observación

El informe se hizo hace 29 minutos, a las 06:52 UTC
Viento 6 kt del norte-noreste
Temperatura 13°C
Humedad 62%
Presión 1025 hPa
Visibilidad: 16.1 km
Cielo despejado

METAR: KDVN 310652Z AUTO 03006KT 10SM CLR 13/06 A3027 RMK AO2 SLP244 T01280061

Hora: 02:21 (07:21 UTC)


TAF: falta

Observaciones y pronósticos meteorológicos de más de 4000 aeropuertos (mensajes METAR y TAF).

Los puntos amarillos y rojos representan las estaciones disponibles.

Ponga el ratón en el punto deseado para ver el nombre de la estación.

Haga clic para ver las observaciones y los pronósticos meteorológicos.

Para cambiar el mapa : haga clic en los botones verdes con una cruz de color negro para hacer un zoom, en el botón verde con un guión para alejar o en las flechas verdes para mapas adyacentes.


METAR-TAF: